createdAt,value
2018-10-18T00:01:50.079Z,13.63
2018-10-18T00:04:54.044Z,13.64
2018-10-18T00:07:58.039Z,13.69
2018-10-18T00:11:02.494Z,13.71
2018-10-18T00:14:06.608Z,13.73
2018-10-18T00:17:16.002Z,13.75
2018-10-18T00:20:19.922Z,13.79
2018-10-18T00:23:23.860Z,13.80
2018-10-18T00:26:28.138Z,13.83
2018-10-18T00:29:32.071Z,13.82
2018-10-18T00:32:36.008Z,13.84
2018-10-18T00:35:39.938Z,13.86
2018-10-18T00:38:43.891Z,13.85
2018-10-18T00:41:48.055Z,13.87
2018-10-18T00:44:52.320Z,13.88
2018-10-18T00:47:56.242Z,13.88
2018-10-18T00:51:00.376Z,13.89
2018-10-18T00:54:05.322Z,13.88
2018-10-18T00:57:09.435Z,13.88
2018-10-18T01:00:13.437Z,13.88
2018-10-18T01:03:17.474Z,13.87
2018-10-18T01:06:21.411Z,13.89
2018-10-18T01:09:25.346Z,13.87
2018-10-18T01:12:29.433Z,13.86
2018-10-18T01:15:33.412Z,13.86
2018-10-18T01:18:37.542Z,13.85
2018-10-18T01:21:41.472Z,13.84
2018-10-18T01:24:45.748Z,13.84
2018-10-18T01:27:49.666Z,13.84
2018-10-18T01:30:53.619Z,13.83
2018-10-18T01:33:57.590Z,13.81
2018-10-18T01:37:01.521Z,13.83
2018-10-18T01:40:05.686Z,13.82
2018-10-18T01:43:09.672Z,13.81
2018-10-18T01:46:13.920Z,13.81
2018-10-18T01:49:17.864Z,13.81
2018-10-18T01:52:21.784Z,13.80
2018-10-18T01:55:26.059Z,13.78
2018-10-18T01:58:29.994Z,13.77
2018-10-18T02:01:34.271Z,13.76
2018-10-18T02:04:38.430Z,13.76
2018-10-18T02:07:42.354Z,13.75
2018-10-18T02:10:46.309Z,13.75
2018-10-18T02:13:50.574Z,13.74
2018-10-18T02:16:54.853Z,13.74
2018-10-18T02:19:58.980Z,13.73
2018-10-18T02:23:02.937Z,13.73
2018-10-18T02:26:06.905Z,13.72
2018-10-18T02:29:10.834Z,13.71
2018-10-18T02:32:14.779Z,13.72
2018-10-18T02:35:19.026Z,13.72
2018-10-18T02:38:22.964Z,13.72
2018-10-18T02:41:26.898Z,13.72
2018-10-18T02:44:30.836Z,13.71
2018-10-18T02:47:35.203Z,13.70
2018-10-18T02:50:39.126Z,13.71
2018-10-18T02:53:43.375Z,13.70
2018-10-18T02:56:47.302Z,13.70
2018-10-18T02:59:51.236Z,13.70
2018-10-18T03:02:55.414Z,13.69
2018-10-18T03:05:59.499Z,13.70
2018-10-18T03:09:04.000Z,13.68
2018-10-18T03:12:07.986Z,13.69
2018-10-18T03:15:12.049Z,13.68
2018-10-18T03:18:16.142Z,13.68
2018-10-18T03:21:20.114Z,13.68
2018-10-18T03:24:24.048Z,13.66
2018-10-18T03:27:28.298Z,13.68
2018-10-18T03:30:32.283Z,13.66
2018-10-18T03:33:36.216Z,13.66
2018-10-18T03:36:40.313Z,13.66
2018-10-18T03:39:44.238Z,13.65
2018-10-18T03:42:48.172Z,13.65
2018-10-18T03:45:52.106Z,13.65
2018-10-18T03:48:56.042Z,13.64
2018-10-18T03:51:59.967Z,13.63
2018-10-18T03:55:03.911Z,13.62
2018-10-18T03:58:08.020Z,13.60
2018-10-18T04:01:11.947Z,13.60
2018-10-18T04:04:15.883Z,13.59
2018-10-18T04:07:19.807Z,13.58
2018-10-18T04:10:23.723Z,13.56
2018-10-18T04:13:27.671Z,13.54
2018-10-18T04:16:31.610Z,13.54
2018-10-18T04:19:35.535Z,13.52
2018-10-18T04:22:39.498Z,13.51
2018-10-18T04:25:43.504Z,13.52
2018-10-18T04:28:47.566Z,13.52
2018-10-18T04:31:51.486Z,13.50
2018-10-18T04:34:55.723Z,13.50
2018-10-18T04:37:59.883Z,13.49
2018-10-18T04:41:03.860Z,13.46
2018-10-18T04:44:07.848Z,13.45
2018-10-18T04:47:12.062Z,13.41
2018-10-18T04:50:16.125Z,13.41
2018-10-18T04:53:20.078Z,13.41
2018-10-18T04:56:24.014Z,13.38
2018-10-18T04:59:28.418Z,13.35
2018-10-18T05:02:32.359Z,13.36
2018-10-18T05:05:46.770Z,13.34
2018-10-18T05:08:50.689Z,13.31
2018-10-18T05:11:54.647Z,13.25
2018-10-18T05:14:58.783Z,13.23
2018-10-18T05:18:02.730Z,13.21
2018-10-18T05:21:06.625Z,13.17
2018-10-18T05:24:10.562Z,13.14
2018-10-18T05:27:14.516Z,13.15
2018-10-18T05:30:18.637Z,13.16
2018-10-18T05:33:22.595Z,13.15
2018-10-18T05:36:26.560Z,13.14
2018-10-18T05:39:30.635Z,13.16
2018-10-18T05:42:34.608Z,13.18
2018-10-18T05:45:38.549Z,13.15
2018-10-18T05:48:42.836Z,13.13
2018-10-18T05:51:46.766Z,13.14
2018-10-18T05:54:50.727Z,13.14
2018-10-18T05:57:54.875Z,13.16
2018-10-18T06:00:58.836Z,13.13
2018-10-18T06:04:02.975Z,13.14
2018-10-18T06:07:07.441Z,13.17
2018-10-18T06:10:23.803Z,13.17
2018-10-18T06:13:28.540Z,13.21
2018-10-18T06:16:32.824Z,13.21
2018-10-18T06:19:36.779Z,13.22
2018-10-18T06:22:41.695Z,13.20
2018-10-18T06:25:45.789Z,13.23
2018-10-18T06:28:50.712Z,13.22
2018-10-18T06:31:54.660Z,13.23
2018-10-18T06:34:58.644Z,13.22
2018-10-18T06:38:02.794Z,13.22
2018-10-18T06:41:07.236Z,13.23
2018-10-18T06:44:11.339Z,13.22
2018-10-18T06:47:15.291Z,13.23
2018-10-18T06:50:20.739Z,13.18
2018-10-18T06:53:24.708Z,13.19
2018-10-18T06:56:28.697Z,13.20
2018-10-18T06:59:32.637Z,13.20
2018-10-18T07:02:36.599Z,13.19
2018-10-18T07:05:40.557Z,13.19
2018-10-18T07:08:44.521Z,13.19
2018-10-18T07:11:48.667Z,13.19
2018-10-18T07:14:52.630Z,13.20
2018-10-18T07:17:56.604Z,13.20
2018-10-18T07:21:00.773Z,13.20
2018-10-18T07:24:05.110Z,13.21
2018-10-18T07:27:09.339Z,13.23
2018-10-18T07:30:14.662Z,13.25
2018-10-18T07:33:18.708Z,13.27
2018-10-18T07:36:22.659Z,13.28
2018-10-18T07:39:26.619Z,13.29
2018-10-18T07:42:30.588Z,13.31
2018-10-18T07:45:35.080Z,13.33
2018-10-18T07:48:39.222Z,13.33
2018-10-18T07:51:43.183Z,13.35
2018-10-18T07:54:47.459Z,13.37
2018-10-18T07:57:51.418Z,13.39
2018-10-18T08:00:55.427Z,13.40
2018-10-18T08:03:59.341Z,13.41
2018-10-18T08:07:03.320Z,13.42
2018-10-18T08:10:10.233Z,13.45
2018-10-18T08:13:14.217Z,13.47
2018-10-18T08:16:18.319Z,13.49
2018-10-18T08:19:22.256Z,13.51
2018-10-18T08:22:26.579Z,13.53
2018-10-18T08:25:30.695Z,13.57
2018-10-18T08:28:34.920Z,13.59
2018-10-18T08:31:38.921Z,13.63
2018-10-18T08:34:43.026Z,13.66
2018-10-18T08:37:47.096Z,13.70
2018-10-18T08:40:51.232Z,13.73
2018-10-18T08:43:55.234Z,13.77
2018-10-18T08:46:59.688Z,13.80
2018-10-18T08:50:03.887Z,13.82
2018-10-18T08:53:08.311Z,13.84
2018-10-18T08:56:12.255Z,13.87
2018-10-18T08:59:16.297Z,13.91
2018-10-18T09:02:20.344Z,13.94
2018-10-18T09:05:24.280Z,13.96
2018-10-18T09:08:28.214Z,13.99
2018-10-18T09:11:32.156Z,14.02
2018-10-18T09:14:36.107Z,14.04
2018-10-18T09:17:40.107Z,14.07
2018-10-18T09:20:44.394Z,14.10
2018-10-18T09:23:48.370Z,14.15
2018-10-18T09:26:52.806Z,14.18
2018-10-18T09:29:56.756Z,14.22
2018-10-18T09:33:00.688Z,14.25
2018-10-18T09:36:05.557Z,14.31
2018-10-18T09:39:09.823Z,14.32
2018-10-18T09:42:13.781Z,14.38
2018-10-18T09:45:17.760Z,14.41
2018-10-18T09:48:21.703Z,14.45
2018-10-18T09:51:25.908Z,14.48
2018-10-18T09:54:29.856Z,14.53
2018-10-18T09:57:33.809Z,14.55
2018-10-18T10:00:43.240Z,14.58
2018-10-18T10:03:47.203Z,14.64
2018-10-18T10:06:51.144Z,14.68
2018-10-18T10:09:55.275Z,14.70
2018-10-18T10:12:59.291Z,14.73
2018-10-18T10:16:03.380Z,14.78
2018-10-18T10:19:07.571Z,14.83
2018-10-18T10:22:11.664Z,14.87
2018-10-18T10:25:15.657Z,14.90
2018-10-18T10:28:19.726Z,14.92
2018-10-18T10:31:23.645Z,14.94
2018-10-18T10:34:27.589Z,14.97
2018-10-18T10:37:31.525Z,15.00
2018-10-18T10:40:35.438Z,15.02
2018-10-18T10:43:39.373Z,15.05
2018-10-18T10:46:43.320Z,15.06
2018-10-18T10:49:47.259Z,15.11
2018-10-18T10:52:51.193Z,15.11
2018-10-18T10:55:55.153Z,15.11
2018-10-18T10:58:59.406Z,15.12
2018-10-18T11:02:03.502Z,15.12
2018-10-18T11:05:07.866Z,15.13
2018-10-18T11:08:12.092Z,15.13
2018-10-18T11:11:16.910Z,15.11
2018-10-18T11:14:20.855Z,15.10
2018-10-18T11:17:25.148Z,15.11
2018-10-18T11:20:29.282Z,15.08
2018-10-18T11:23:34.003Z,15.07
2018-10-18T11:26:38.118Z,15.01
2018-10-18T11:29:42.061Z,15.03
2018-10-18T11:32:46.211Z,15.05
2018-10-18T11:35:50.184Z,15.00
2018-10-18T11:38:54.142Z,14.93
2018-10-18T11:41:58.083Z,14.86
2018-10-18T11:45:02.241Z,14.80
2018-10-18T11:48:07.453Z,14.73
2018-10-18T11:51:11.565Z,14.67
2018-10-18T11:54:15.730Z,14.63
2018-10-18T11:57:19.826Z,14.68
2018-10-18T12:00:24.121Z,14.56
2018-10-18T12:03:28.039Z,14.54
2018-10-18T12:06:31.970Z,14.48
2018-10-18T12:09:35.894Z,14.45
2018-10-18T12:12:39.827Z,14.35
2018-10-18T12:15:43.743Z,14.33
2018-10-18T12:18:47.882Z,14.29
2018-10-18T12:21:51.829Z,14.29
2018-10-18T12:24:55.994Z,14.30
2018-10-18T12:27:59.944Z,14.31
2018-10-18T12:31:03.845Z,14.29
2018-10-18T12:34:07.790Z,14.29
2018-10-18T12:37:12.251Z,14.31
2018-10-18T12:40:16.216Z,14.28
2018-10-18T12:43:20.310Z,14.28
2018-10-18T12:46:24.229Z,14.23
2018-10-18T12:49:28.161Z,14.22
2018-10-18T12:52:32.093Z,14.18
2018-10-18T12:55:36.035Z,14.19
2018-10-18T12:58:39.965Z,14.18
2018-10-18T13:01:43.958Z,14.16
2018-10-18T13:04:48.057Z,14.16
2018-10-18T13:07:52.314Z,14.17
2018-10-18T13:10:56.431Z,14.13
2018-10-18T13:14:00.375Z,14.13
2018-10-18T13:17:04.610Z,14.12
2018-10-18T13:20:09.238Z,14.09
2018-10-18T13:23:13.341Z,14.07
2018-10-18T13:26:17.593Z,14.13
2018-10-18T13:29:21.602Z,14.10
2018-10-18T13:32:25.539Z,14.10
2018-10-18T13:35:29.658Z,14.09
2018-10-18T13:38:33.567Z,14.06
2018-10-18T13:41:37.514Z,14.04
2018-10-18T13:44:41.446Z,14.03
2018-10-18T13:47:45.358Z,14.02
2018-10-18T13:50:49.278Z,13.98
2018-10-18T13:53:53.230Z,13.96
2018-10-18T13:56:57.342Z,13.97
2018-10-18T14:00:18.654Z,13.95
2018-10-18T14:03:22.765Z,13.95
2018-10-18T14:06:26.694Z,13.95
2018-10-18T14:09:30.617Z,13.93
2018-10-18T14:12:34.546Z,13.94
2018-10-18T14:15:38.487Z,13.92
2018-10-18T14:18:42.743Z,13.92
2018-10-18T14:21:46.657Z,13.93
2018-10-18T14:24:50.599Z,13.93
2018-10-18T14:27:54.522Z,13.92
2018-10-18T14:30:59.302Z,13.91
2018-10-18T14:34:03.322Z,13.91
2018-10-18T14:37:07.593Z,13.88
2018-10-18T14:40:12.438Z,13.89
2018-10-18T14:43:16.397Z,13.82
2018-10-18T14:46:20.850Z,13.78
2018-10-18T14:49:24.773Z,13.75
2018-10-18T14:52:28.752Z,13.71
2018-10-18T14:55:33.233Z,13.66
2018-10-18T14:58:37.157Z,13.65
2018-10-18T15:01:41.105Z,13.60
2018-10-18T15:04:45.355Z,13.58
2018-10-18T15:07:49.278Z,13.55
2018-10-18T15:10:53.400Z,13.54
2018-10-18T15:13:57.533Z,13.53
2018-10-18T15:17:01.707Z,13.48
2018-10-18T15:20:07.196Z,13.48
2018-10-18T15:23:11.337Z,13.44
2018-10-18T15:26:15.424Z,13.41
2018-10-18T15:29:19.632Z,13.42
2018-10-18T15:32:23.713Z,13.38
2018-10-18T15:35:27.792Z,13.33
2018-10-18T15:38:31.896Z,13.33
2018-10-18T15:41:36.330Z,13.29
2018-10-18T15:44:40.271Z,13.26
2018-10-18T15:47:44.833Z,13.27
2018-10-18T15:50:48.871Z,13.20
2018-10-18T15:53:52.987Z,13.17
2018-10-18T15:56:56.972Z,13.12
2018-10-18T16:00:01.411Z,13.04
2018-10-18T16:03:05.748Z,13.00
2018-10-18T16:06:10.212Z,12.97
2018-10-18T16:09:14.810Z,12.92
2018-10-18T16:12:18.729Z,12.87
2018-10-18T16:15:23.326Z,12.81
2018-10-18T16:18:27.289Z,12.78
2018-10-18T16:21:31.231Z,12.70
2018-10-18T16:24:35.159Z,12.66
2018-10-18T16:27:39.222Z,12.56
2018-10-18T16:30:43.364Z,12.51
2018-10-18T16:33:47.374Z,12.45
2018-10-18T16:36:51.434Z,12.40
2018-10-18T16:39:55.358Z,12.34
2018-10-18T16:43:01.001Z,12.30
2018-10-18T16:46:05.081Z,12.25
2018-10-18T16:49:09.124Z,12.19
2018-10-18T16:52:13.284Z,12.14
2018-10-18T16:55:17.346Z,12.05
2018-10-18T16:58:21.447Z,11.97
2018-10-18T17:01:25.619Z,11.91
2018-10-18T17:04:29.609Z,11.86
2018-10-18T17:07:33.635Z,11.78
2018-10-18T17:10:37.528Z,11.69
2018-10-18T17:13:41.442Z,11.60
2018-10-18T17:16:45.356Z,11.52
2018-10-18T17:19:49.268Z,11.48
2018-10-18T17:22:53.169Z,11.41
2018-10-18T17:25:57.101Z,11.32
2018-10-18T17:29:01.181Z,11.27
2018-10-18T17:32:05.156Z,11.16
2018-10-18T17:35:09.595Z,11.11
2018-10-18T17:38:13.562Z,11.02
2018-10-18T17:41:18.537Z,10.93
2018-10-18T17:44:22.479Z,10.86
2018-10-18T17:47:26.482Z,10.80
2018-10-18T17:50:30.415Z,10.71
2018-10-18T17:53:34.330Z,10.67
2018-10-18T17:56:38.233Z,10.56
2018-10-18T17:59:42.183Z,10.52
2018-10-18T18:02:46.265Z,10.44
2018-10-18T18:05:50.803Z,10.38
2018-10-18T18:08:54.834Z,10.34
2018-10-18T18:11:58.742Z,10.24
2018-10-18T18:15:02.659Z,10.18
2018-10-18T18:18:06.902Z,10.16
2018-10-18T18:21:10.919Z,10.08
2018-10-18T18:24:14.817Z,9.99
2018-10-18T18:27:18.697Z,9.93
2018-10-18T18:30:22.581Z,9.88
2018-10-18T18:33:26.470Z,9.80
2018-10-18T18:36:30.866Z,9.73
2018-10-18T18:39:34.746Z,9.71
2018-10-18T18:42:39.409Z,9.66
2018-10-18T18:45:43.301Z,9.58
2018-10-18T18:48:47.190Z,9.55
2018-10-18T18:51:51.068Z,9.47
2018-10-18T18:54:55.161Z,9.39
2018-10-18T18:57:59.270Z,9.35
2018-10-18T19:01:03.165Z,9.21
2018-10-18T19:04:07.081Z,9.20
2018-10-18T19:07:10.971Z,9.14
2018-10-18T19:10:15.182Z,9.09
2018-10-18T19:13:19.120Z,8.99
2018-10-18T19:16:23.519Z,8.97
2018-10-18T19:19:27.401Z,8.89
2018-10-18T19:22:31.688Z,8.87
2018-10-18T19:25:35.705Z,8.80
2018-10-18T19:28:39.649Z,8.78
2018-10-18T19:31:43.680Z,8.73
2018-10-18T19:34:48.114Z,8.68
2018-10-18T19:37:52.043Z,8.58
2018-10-18T19:40:56.444Z,8.51
2018-10-18T19:44:00.330Z,8.49
2018-10-18T19:47:04.503Z,8.42
2018-10-18T19:50:09.125Z,8.36
2018-10-18T19:53:13.155Z,8.33
2018-10-18T19:56:17.054Z,8.23
2018-10-18T19:59:21.139Z,8.19
2018-10-18T20:02:25.035Z,8.17
2018-10-18T20:05:29.242Z,8.12
2018-10-18T20:08:33.466Z,8.06
2018-10-18T20:11:37.359Z,8.02
2018-10-18T20:14:41.239Z,7.91
2018-10-18T20:17:45.122Z,7.91
2018-10-18T20:20:48.998Z,7.80
2018-10-18T20:23:53.133Z,7.81
2018-10-18T20:26:57.206Z,7.76
2018-10-18T20:30:01.113Z,7.72
2018-10-18T20:33:05.364Z,7.68
2018-10-18T20:36:09.432Z,7.65
2018-10-18T20:39:13.398Z,7.55
2018-10-18T20:42:17.425Z,7.49
2018-10-18T20:45:26.958Z,7.48
2018-10-18T20:48:30.843Z,7.44
2018-10-18T20:51:35.077Z,7.36
2018-10-18T20:54:39.151Z,7.34
2018-10-18T20:57:43.048Z,7.32
2018-10-18T21:00:47.270Z,7.24
2018-10-18T21:03:51.341Z,7.23
2018-10-18T21:06:55.227Z,7.19
2018-10-18T21:09:59.561Z,7.08
2018-10-18T21:13:03.684Z,7.05
2018-10-18T21:16:08.029Z,7.00
2018-10-18T21:19:12.249Z,7.08
2018-10-18T21:22:16.190Z,7.02
2018-10-18T21:25:20.323Z,6.94
2018-10-18T21:28:24.239Z,6.92
2018-10-18T21:31:28.133Z,6.88
2018-10-18T21:34:32.059Z,6.87
2018-10-18T21:37:36.771Z,6.75
2018-10-18T21:40:40.646Z,6.69
2018-10-18T21:43:44.530Z,6.75
2018-10-18T21:46:48.436Z,6.59
2018-10-18T21:49:52.318Z,6.57
2018-10-18T21:52:56.270Z,6.53
2018-10-18T21:56:00.370Z,6.48
2018-10-18T21:59:04.672Z,6.44
2018-10-18T22:02:08.985Z,6.44
2018-10-18T22:05:13.761Z,6.34
2018-10-18T22:08:17.799Z,6.29
2018-10-18T22:11:21.679Z,6.27
2018-10-18T22:14:25.636Z,6.18
2018-10-18T22:17:29.662Z,6.16
2018-10-18T22:20:33.699Z,6.16
2018-10-18T22:23:37.577Z,6.11
2018-10-18T22:26:41.806Z,6.04
2018-10-18T22:29:45.969Z,6.01
2018-10-18T22:32:49.986Z,5.98
2018-10-18T22:35:53.871Z,5.94
2018-10-18T22:38:58.099Z,5.93
2018-10-18T22:42:02.530Z,5.89
2018-10-18T22:45:07.694Z,5.86
2018-10-18T22:48:12.111Z,5.80
2018-10-18T22:51:16.044Z,5.84
2018-10-18T22:54:20.123Z,5.75
2018-10-18T22:57:24.027Z,5.73
2018-10-18T23:00:28.243Z,5.79
2018-10-18T23:03:32.149Z,5.76
2018-10-18T23:06:36.049Z,5.65
2018-10-18T23:09:39.954Z,5.65
2018-10-18T23:12:43.829Z,5.66
2018-10-18T23:15:47.923Z,5.56
2018-10-18T23:18:51.809Z,5.59
2018-10-18T23:21:55.677Z,5.56
2018-10-18T23:24:59.557Z,5.52
2018-10-18T23:28:03.454Z,5.44
2018-10-18T23:31:07.351Z,5.40
2018-10-18T23:34:11.801Z,5.36
2018-10-18T23:37:15.687Z,5.41
2018-10-18T23:40:19.579Z,5.29
2018-10-18T23:43:23.453Z,5.27
2018-10-18T23:46:27.347Z,5.28
2018-10-18T23:49:31.242Z,5.16
2018-10-18T23:52:35.281Z,5.15
2018-10-18T23:55:39.231Z,5.14
2018-10-18T23:58:43.386Z,5.12
